sensor_id;sensor_type;location;lat;lon;timestamp;pressure;altitude;pressure_sealevel;temperature;humidity
59409;BME280;45213;32.654;-115.458;2022-11-21T00:01:19;101972.41;;;22.56;15.85
59409;BME280;45213;32.654;-115.458;2022-11-21T00:03:46;101979.84;;;22.37;15.90
59409;BME280;45213;32.654;-115.458;2022-11-21T00:06:19;101972.31;;;22.15;16.27
59409;BME280;45213;32.654;-115.458;2022-11-21T00:08:48;101965.53;;;22.02;16.30
59409;BME280;45213;32.654;-115.458;2022-11-21T00:11:15;101973.75;;;21.88;16.18
59409;BME280;45213;32.654;-115.458;2022-11-21T00:13:42;101966.00;;;21.77;16.67
59409;BME280;45213;32.654;-115.458;2022-11-21T00:16:14;101961.72;;;21.68;16.66
59409;BME280;45213;32.654;-115.458;2022-11-21T00:18:41;101970.78;;;21.58;16.80
59409;BME280;45213;32.654;-115.458;2022-11-21T00:21:14;101969.22;;;21.46;17.16
59409;BME280;45213;32.654;-115.458;2022-11-21T00:23:47;101967.63;;;21.35;17.20
59409;BME280;45213;32.654;-115.458;2022-11-21T00:26:14;101972.19;;;21.25;16.94
59409;BME280;45213;32.654;-115.458;2022-11-21T00:28:42;101975.06;;;21.11;16.50
59409;BME280;45213;32.654;-115.458;2022-11-21T00:31:22;101968.97;;;21.08;16.48
59409;BME280;45213;32.654;-115.458;2022-11-21T00:33:49;101976.00;;;21.07;17.00
59409;BME280;45213;32.654;-115.458;2022-11-21T00:36:22;101970.84;;;20.99;18.01
59409;BME280;45213;32.654;-115.458;2022-11-21T00:38:49;101968.41;;;20.87;18.08
59409;BME280;45213;32.654;-115.458;2022-11-21T00:41:16;101973.84;;;20.76;18.60
59409;BME280;45213;32.654;-115.458;2022-11-21T00:43:42;101985.41;;;20.68;19.16
59409;BME280;45213;32.654;-115.458;2022-11-21T00:46:15;101975.84;;;20.56;19.84
59409;BME280;45213;32.654;-115.458;2022-11-21T00:48:42;101981.34;;;20.39;20.77
59409;BME280;45213;32.654;-115.458;2022-11-21T00:51:12;101990.31;;;20.27;21.00
59409;BME280;45213;32.654;-115.458;2022-11-21T00:53:39;101993.19;;;20.10;20.27
59409;BME280;45213;32.654;-115.458;2022-11-21T00:56:05;101996.78;;;20.01;20.50
59409;BME280;45213;32.654;-115.458;2022-11-21T00:58:35;101997.72;;;19.99;18.96
59409;BME280;45213;32.654;-115.458;2022-11-21T01:01:08;101998.56;;;20.01;18.85
59409;BME280;45213;32.654;-115.458;2022-11-21T01:03:36;102003.88;;;19.99;19.62
59409;BME280;45213;32.654;-115.458;2022-11-21T01:06:11;101998.69;;;19.92;19.21
59409;BME280;45213;32.654;-115.458;2022-11-21T01:08:43;102004.00;;;19.86;19.54
59409;BME280;45213;32.654;-115.458;2022-11-21T01:11:13;102012.84;;;19.83;19.72
59409;BME280;45213;32.654;-115.458;2022-11-21T01:13:44;102011.13;;;19.80;20.13
59409;BME280;45213;32.654;-115.458;2022-11-21T01:16:22;102018.22;;;19.72;21.72
59409;BME280;45213;32.654;-115.458;2022-11-21T01:18:52;102014.78;;;19.61;21.77
59409;BME280;45213;32.654;-115.458;2022-11-21T01:21:24;102009.56;;;19.52;21.91
59409;BME280;45213;32.654;-115.458;2022-11-21T01:23:52;102019.31;;;19.47;21.69
59409;BME280;45213;32.654;-115.458;2022-11-21T01:26:24;102002.72;;;19.29;21.96
59409;BME280;45213;32.654;-115.458;2022-11-21T01:28:52;102020.44;;;19.15;22.68
59409;BME280;45213;32.654;-115.458;2022-11-21T01:31:26;102017.88;;;19.03;21.99
59409;BME280;45213;32.654;-115.458;2022-11-21T01:33:55;102025.81;;;18.99;22.67
59409;BME280;45213;32.654;-115.458;2022-11-21T01:36:27;102025.88;;;18.90;23.41
59409;BME280;45213;32.654;-115.458;2022-11-21T01:38:56;102024.16;;;18.75;24.19
59409;BME280;45213;32.654;-115.458;2022-11-21T01:41:44;102025.09;;;18.59;25.36
59409;BME280;45213;32.654;-115.458;2022-11-21T01:44:43;102018.13;;;18.52;24.70
59409;BME280;45213;32.654;-115.458;2022-11-21T01:47:10;102020.75;;;18.53;25.97
59409;BME280;45213;32.654;-115.458;2022-11-21T01:49:42;102019.03;;;18.39;24.52
59409;BME280;45213;32.654;-115.458;2022-11-21T01:52:23;102020.84;;;18.29;25.93
59409;BME280;45213;32.654;-115.458;2022-11-21T01:57:40;102018.25;;;18.07;25.71
59409;BME280;45213;32.654;-115.458;2022-11-21T02:00:26;102024.41;;;18.11;26.08
59409;BME280;45213;32.654;-115.458;2022-11-21T02:02:58;102018.28;;;17.98;26.28
59409;BME280;45213;32.654;-115.458;2022-11-21T02:05:30;102037.63;;;17.91;26.58
59409;BME280;45213;32.654;-115.458;2022-11-21T02:08:03;102011.28;;;17.82;25.58
59409;BME280;45213;32.654;-115.458;2022-11-21T02:10:33;102008.63;;;17.66;26.36
59409;BME280;45213;32.654;-115.458;2022-11-21T02:13:02;102030.63;;;17.85;27.33
59409;BME280;45213;32.654;-115.458;2022-11-21T02:15:29;102038.47;;;17.78;26.69
59409;BME280;45213;32.654;-115.458;2022-11-21T02:17:56;102015.66;;;17.60;26.52
59409;BME280;45213;32.654;-115.458;2022-11-21T02:20:27;102038.50;;;17.71;27.23
59409;BME280;45213;32.654;-115.458;2022-11-21T02:25:46;102010.41;;;17.29;27.33
59409;BME280;45213;32.654;-115.458;2022-11-21T02:28:27;102015.69;;;17.35;28.00
59409;BME280;45213;32.654;-115.458;2022-11-21T02:30:54;102037.59;;;17.42;26.98
59409;BME280;45213;32.654;-115.458;2022-11-21T02:33:21;102040.25;;;17.39;28.04
59409;BME280;45213;32.654;-115.458;2022-11-21T02:36:01;102040.22;;;17.29;28.89
59409;BME280;45213;32.654;-115.458;2022-11-21T02:38:32;102041.09;;;17.19;27.79
59409;BME280;45213;32.654;-115.458;2022-11-21T02:41:04;102045.47;;;17.11;28.26
59409;BME280;45213;32.654;-115.458;2022-11-21T02:43:50;102036.69;;;17.06;28.72
59409;BME280;45213;32.654;-115.458;2022-11-21T02:46:19;102041.94;;;17.03;27.12
59409;BME280;45213;32.654;-115.458;2022-11-21T02:48:49;102039.28;;;16.95;27.56
59409;BME280;45213;32.654;-115.458;2022-11-21T02:51:15;102048.03;;;16.83;27.86
59409;BME280;45213;32.654;-115.458;2022-11-21T02:53:45;102050.66;;;16.89;30.18
59409;BME280;45213;32.654;-115.458;2022-11-21T02:56:12;102047.16;;;16.84;28.41
59409;BME280;45213;32.654;-115.458;2022-11-21T02:58:41;102044.53;;;16.83;29.52
59409;BME280;45213;32.654;-115.458;2022-11-21T03:01:12;102041.81;;;16.75;28.81
59409;BME280;45213;32.654;-115.458;2022-11-21T03:03:40;102044.41;;;16.66;28.82
59409;BME280;45213;32.654;-115.458;2022-11-21T03:06:06;102040.06;;;16.65;29.09
59409;BME280;45213;32.654;-115.458;2022-11-21T03:08:36;102047.88;;;16.57;28.67
59409;BME280;45213;32.654;-115.458;2022-11-21T03:11:15;102048.72;;;16.47;30.43
59409;BME280;45213;32.654;-115.458;2022-11-21T03:13:45;102049.59;;;16.50;30.32
59409;BME280;45213;32.654;-115.458;2022-11-21T03:16:12;102049.59;;;16.40;29.72
59409;BME280;45213;32.654;-115.458;2022-11-21T03:18:40;102049.59;;;16.46;29.25
59409;BME280;45213;32.654;-115.458;2022-11-21T03:21:06;102052.19;;;16.35;28.93
59409;BME280;45213;32.654;-115.458;2022-11-21T03:23:33;102051.25;;;16.24;29.90
59409;BME280;45213;32.654;-115.458;2022-11-21T03:26:05;102047.75;;;16.29;30.74
59409;BME280;45213;32.654;-115.458;2022-11-21T03:28:39;102057.41;;;16.26;30.22
59409;BME280;45213;32.654;-115.458;2022-11-21T03:31:13;102055.59;;;16.23;30.60
59409;BME280;45213;32.654;-115.458;2022-11-21T03:33:39;102051.25;;;16.24;29.93
59409;BME280;45213;32.654;-115.458;2022-11-21T03:36:06;102056.44;;;16.15;29.98
59409;BME280;45213;32.654;-115.458;2022-11-21T03:38:36;102065.97;;;16.00;30.62
59409;BME280;45213;32.654;-115.458;2022-11-21T03:41:08;102066.81;;;15.96;31.24
59409;BME280;45213;32.654;-115.458;2022-11-21T03:44:05;102070.31;;;15.92;30.58
59409;BME280;45213;32.654;-115.458;2022-11-21T03:46:35;102079.03;;;15.88;31.07
59409;BME280;45213;32.654;-115.458;2022-11-21T03:49:05;102068.41;;;15.74;30.90
59409;BME280;45213;32.654;-115.458;2022-11-21T03:51:35;102084.13;;;15.71;29.29
59409;BME280;45213;32.654;-115.458;2022-11-21T03:54:06;102083.25;;;15.71;29.39
59409;BME280;45213;32.654;-115.458;2022-11-21T03:56:39;102074.41;;;15.62;31.30
59409;BME280;45213;32.654;-115.458;2022-11-21T03:59:06;102072.69;;;15.68;31.52
59409;BME280;45213;32.654;-115.458;2022-11-21T04:01:33;102077.00;;;15.59;31.24
59409;BME280;45213;32.654;-115.458;2022-11-21T04:03:59;102076.81;;;15.39;29.76
59409;BME280;45213;32.654;-115.458;2022-11-21T04:06:26;102080.31;;;15.41;31.59
59409;BME280;45213;32.654;-115.458;2022-11-21T04:08:53;102086.50;;;15.45;31.95
59409;BME280;45213;32.654;-115.458;2022-11-21T04:11:25;102082.88;;;15.31;31.42
59409;BME280;45213;32.654;-115.458;2022-11-21T04:13:53;102082.88;;;15.31;32.62
59409;BME280;45213;32.654;-115.458;2022-11-21T04:16:23;102088.00;;;15.20;32.79
59409;BME280;45213;32.654;-115.458;2022-11-21T04:18:50;102092.44;;;15.27;33.22
59409;BME280;45213;32.654;-115.458;2022-11-21T04:21:16;102087.94;;;15.15;32.18
59409;BME280;45213;32.654;-115.458;2022-11-21T04:23:45;102089.66;;;15.10;31.50
59409;BME280;45213;32.654;-115.458;2022-11-21T04:26:18;102094.00;;;15.08;30.80
59409;BME280;45213;32.654;-115.458;2022-11-21T04:28:46;102091.25;;;14.99;32.29
59409;BME280;45213;32.654;-115.458;2022-11-21T04:31:12;102093.00;;;15.00;32.44
59409;BME280;45213;32.654;-115.458;2022-11-21T04:33:39;102099.97;;;14.98;32.92
59409;BME280;45213;32.654;-115.458;2022-11-21T04:36:07;102096.38;;;14.88;32.58
59409;BME280;45213;32.654;-115.458;2022-11-21T04:38:45;102092.97;;;14.95;32.81
59409;BME280;45213;32.654;-115.458;2022-11-21T04:41:15;102083.28;;;14.90;33.57
59409;BME280;45213;32.654;-115.458;2022-11-21T04:43:51;102085.78;;;14.80;32.46
59409;BME280;45213;32.654;-115.458;2022-11-21T04:46:18;102090.16;;;14.78;32.27
59409;BME280;45213;32.654;-115.458;2022-11-21T04:48:45;102097.94;;;14.75;33.29
59409;BME280;45213;32.654;-115.458;2022-11-21T04:51:12;102103.13;;;14.71;33.81
59409;BME280;45213;32.654;-115.458;2022-11-21T04:53:42;102104.97;;;14.76;33.46
59409;BME280;45213;32.654;-115.458;2022-11-21T04:56:08;102102.38;;;14.79;33.92
59409;BME280;45213;32.654;-115.458;2022-11-21T04:58:35;102090.03;;;14.71;32.42
59409;BME280;45213;32.654;-115.458;2022-11-21T05:01:06;102097.00;;;14.69;33.45
59409;BME280;45213;32.654;-115.458;2022-11-21T05:03:33;102102.19;;;14.63;34.95
59409;BME280;45213;32.654;-115.458;2022-11-21T05:06:01;102087.97;;;14.50;33.57
59409;BME280;45213;32.654;-115.458;2022-11-21T05:08:33;102089.75;;;14.52;34.27
59409;BME280;45213;32.654;-115.458;2022-11-21T05:11:00;102097.53;;;14.45;34.02
59409;BME280;45213;32.654;-115.458;2022-11-21T05:13:45;102090.50;;;14.44;34.29
59409;BME280;45213;32.654;-115.458;2022-11-21T05:16:12;102086.94;;;14.38;33.54
59409;BME280;45213;32.654;-115.458;2022-11-21T05:18:39;102095.66;;;14.37;33.74
59409;BME280;45213;32.654;-115.458;2022-11-21T05:21:06;102088.69;;;14.38;32.69
59409;BME280;45213;32.654;-115.458;2022-11-21T05:23:32;102092.16;;;14.35;34.22
59409;BME280;45213;32.654;-115.458;2022-11-21T05:25:59;102086.00;;;14.33;34.10
59409;BME280;45213;32.654;-115.458;2022-11-21T05:28:35;102083.19;;;14.19;33.41
59409;BME280;45213;32.654;-115.458;2022-11-21T05:31:01;102081.38;;;14.15;33.31
59409;BME280;45213;32.654;-115.458;2022-11-21T05:33:28;102084.91;;;14.17;34.24
59409;BME280;45213;32.654;-115.458;2022-11-21T05:35:54;102092.03;;;14.26;33.42
59409;BME280;45213;32.654;-115.458;2022-11-21T05:38:54;102091.97;;;14.23;34.29
59409;BME280;45213;32.654;-115.458;2022-11-21T05:41:20;102086.66;;;14.18;34.14
59409;BME280;45213;32.654;-115.458;2022-11-21T05:43:47;102084.69;;;14.05;33.45
59409;BME280;45213;32.654;-115.458;2022-11-21T05:46:18;102093.53;;;14.10;33.10
59409;BME280;45213;32.654;-115.458;2022-11-21T05:49:01;102095.31;;;14.13;34.65
59409;BME280;45213;32.654;-115.458;2022-11-21T05:51:27;102090.13;;;14.16;33.58
59409;BME280;45213;32.654;-115.458;2022-11-21T05:53:58;102092.63;;;14.10;33.52
59409;BME280;45213;32.654;-115.458;2022-11-21T05:56:25;102092.41;;;13.94;34.07
59409;BME280;45213;32.654;-115.458;2022-11-21T05:58:55;102091.41;;;13.86;32.91
59409;BME280;45213;32.654;-115.458;2022-11-21T06:01:23;102086.19;;;13.88;34.62
59409;BME280;45213;32.654;-115.458;2022-11-21T06:04:09;102087.09;;;13.91;33.67
59409;BME280;45213;32.654;-115.458;2022-11-21T06:06:36;102088.88;;;13.92;33.07
59409;BME280;45213;32.654;-115.458;2022-11-21T06:09:03;102087.09;;;13.91;32.20
59409;BME280;45213;32.654;-115.458;2022-11-21T06:11:30;102092.50;;;13.99;31.25
59409;BME280;45213;32.654;-115.458;2022-11-21T06:13:56;102088.94;;;13.95;32.30
59409;BME280;45213;32.654;-115.458;2022-11-21T06:16:23;102087.91;;;13.87;31.68
59409;BME280;45213;32.654;-115.458;2022-11-21T06:18:51;102095.75;;;13.86;32.20
59409;BME280;45213;32.654;-115.458;2022-11-21T06:21:20;102088.75;;;13.85;32.03
59409;BME280;45213;32.654;-115.458;2022-11-21T06:23:54;102091.22;;;13.74;31.46
59409;BME280;45213;32.654;-115.458;2022-11-21T06:26:24;102089.50;;;13.77;32.36
59409;BME280;45213;32.654;-115.458;2022-11-21T06:28:51;102084.13;;;13.68;32.08
59409;BME280;45213;32.654;-115.458;2022-11-21T06:31:23;102083.06;;;13.57;31.54
59409;BME280;45213;32.654;-115.458;2022-11-21T06:33:52;102080.31;;;13.49;31.65
59409;BME280;45213;32.654;-115.458;2022-11-21T06:36:20;102094.06;;;13.39;33.21
59409;BME280;45213;32.654;-115.458;2022-11-21T06:38:47;102092.31;;;13.38;32.15
59409;BME280;45213;32.654;-115.458;2022-11-21T06:41:39;102089.00;;;13.48;34.02
59409;BME280;45213;32.654;-115.458;2022-11-21T06:44:16;102085.31;;;13.37;31.99
59409;BME280;45213;32.654;-115.458;2022-11-21T06:46:43;102083.47;;;13.33;31.97
59409;BME280;45213;32.654;-115.458;2022-11-21T06:49:13;102083.47;;;13.33;33.62
59409;BME280;45213;32.654;-115.458;2022-11-21T06:51:46;102072.22;;;13.35;33.35
59409;BME280;45213;32.654;-115.458;2022-11-21T06:54:13;102075.38;;;13.21;33.53
59409;BME280;45213;32.654;-115.458;2022-11-21T06:56:40;102068.31;;;13.15;32.90
59409;BME280;45213;32.654;-115.458;2022-11-21T06:59:07;102069.19;;;13.15;33.84
59409;BME280;45213;32.654;-115.458;2022-11-21T07:01:35;102068.28;;;13.13;34.86
59409;BME280;45213;32.654;-115.458;2022-11-21T07:04:02;102072.66;;;13.14;35.21
59409;BME280;45213;32.654;-115.458;2022-11-21T07:06:34;102070.94;;;13.16;34.55
59409;BME280;45213;32.654;-115.458;2022-11-21T07:09:01;102074.25;;;13.06;32.10
59409;BME280;45213;32.654;-115.458;2022-11-21T07:11:28;102075.78;;;12.96;32.07
59409;BME280;45213;32.654;-115.458;2022-11-21T07:13:55;102072.34;;;12.98;33.24
59409;BME280;45213;32.654;-115.458;2022-11-21T07:16:24;102074.09;;;12.99;31.54
59409;BME280;45213;32.654;-115.458;2022-11-21T07:19:07;102068.84;;;12.97;32.25
59409;BME280;45213;32.654;-115.458;2022-11-21T07:21:39;102071.47;;;12.97;32.32
59409;BME280;45213;32.654;-115.458;2022-11-21T07:24:11;102074.25;;;13.06;33.17
59409;BME280;45213;32.654;-115.458;2022-11-21T07:26:38;102077.66;;;13.02;32.75
59409;BME280;45213;32.654;-115.458;2022-11-21T07:29:05;102074.06;;;12.97;32.09
59409;BME280;45213;32.654;-115.458;2022-11-21T07:31:32;102074.81;;;12.91;33.29
59409;BME280;45213;32.654;-115.458;2022-11-21T07:33:58;102065.91;;;12.82;32.01
59409;BME280;45213;32.654;-115.458;2022-11-21T07:36:31;102080.56;;;12.73;31.21
59409;BME280;45213;32.654;-115.458;2022-11-21T07:39:04;102071.69;;;12.65;30.96
59409;BME280;45213;32.654;-115.458;2022-11-21T07:41:31;102077.94;;;12.73;32.09
59409;BME280;45213;32.654;-115.458;2022-11-21T07:44:02;102082.25;;;12.71;32.77
59409;BME280;45213;32.654;-115.458;2022-11-21T07:46:32;102076.94;;;12.67;33.78
59409;BME280;45213;32.654;-115.458;2022-11-21T07:49:02;102065.44;;;12.59;32.83
59409;BME280;45213;32.654;-115.458;2022-11-21T07:51:28;102073.28;;;12.60;33.59
59409;BME280;45213;32.654;-115.458;2022-11-21T07:53:55;102073.25;;;12.57;32.29
59409;BME280;45213;32.654;-115.458;2022-11-21T07:56:21;102073.19;;;12.56;31.58
59409;BME280;45213;32.654;-115.458;2022-11-21T07:59:00;102073.25;;;12.57;30.25
59409;BME280;45213;32.654;-115.458;2022-11-21T08:01:26;102061.09;;;12.59;28.91
59409;BME280;45213;32.654;-115.458;2022-11-21T08:03:53;102060.28;;;12.62;29.39
59409;BME280;45213;32.654;-115.458;2022-11-21T08:06:19;102059.44;;;12.64;30.00
59409;BME280;45213;32.654;-115.458;2022-11-21T08:08:46;102054.16;;;12.61;29.19
59409;BME280;45213;32.654;-115.458;2022-11-21T08:11:25;102049.78;;;12.59;28.64
59409;BME280;45213;32.654;-115.458;2022-11-21T08:13:55;102063.75;;;12.62;27.10
59409;BME280;45213;32.654;-115.458;2022-11-21T08:16:23;102059.41;;;12.61;26.45
59409;BME280;45213;32.654;-115.458;2022-11-21T08:18:53;102050.69;;;12.62;26.48
59409;BME280;45213;32.654;-115.458;2022-11-21T08:21:19;102071.84;;;12.73;26.26
59409;BME280;45213;32.654;-115.458;2022-11-21T08:23:47;102059.63;;;12.73;25.77
59409;BME280;45213;32.654;-115.458;2022-11-21T08:26:20;102058.72;;;12.71;25.11
59409;BME280;45213;32.654;-115.458;2022-11-21T08:28:47;102053.34;;;12.64;25.12
59409;BME280;45213;32.654;-115.458;2022-11-21T08:31:25;102059.41;;;12.61;25.12
59409;BME280;45213;32.654;-115.458;2022-11-21T08:33:58;102060.13;;;12.56;25.32
59409;BME280;45213;32.654;-115.458;2022-11-21T08:36:25;102060.97;;;12.53;25.02
59409;BME280;45213;32.654;-115.458;2022-11-21T08:38:52;102059.06;;;12.46;24.97
59409;BME280;45213;32.654;-115.458;2022-11-21T08:41:18;102065.31;;;12.52;25.47
59409;BME280;45213;32.654;-115.458;2022-11-21T08:44:29;102070.44;;;12.48;24.89
59409;BME280;45213;32.654;-115.458;2022-11-21T08:47:01;102073.81;;;12.42;24.89
59409;BME280;45213;32.654;-115.458;2022-11-21T08:49:29;102078.13;;;12.42;25.96
59409;BME280;45213;32.654;-115.458;2022-11-21T08:51:56;102072.75;;;12.34;25.93
59409;BME280;45213;32.654;-115.458;2022-11-21T08:54:25;102076.94;;;12.27;25.61
59409;BME280;45213;32.654;-115.458;2022-11-21T08:56:52;102077.72;;;12.23;25.90
59409;BME280;45213;32.654;-115.458;2022-11-21T08:59:19;102080.34;;;12.23;27.31
59409;BME280;45213;32.654;-115.458;2022-11-21T09:01:45;102081.09;;;12.19;28.62
59409;BME280;45213;32.654;-115.458;2022-11-21T09:04:12;102076.81;;;12.21;27.28
59409;BME280;45213;32.654;-115.458;2022-11-21T09:06:38;102080.22;;;12.19;27.91
59409;BME280;45213;32.654;-115.458;2022-11-21T09:09:05;102073.25;;;12.18;27.38
59409;BME280;45213;32.654;-115.458;2022-11-21T09:11:38;102077.56;;;12.17;27.28
59409;BME280;45213;32.654;-115.458;2022-11-21T09:14:05;102073.91;;;12.09;26.73
59409;BME280;45213;32.654;-115.458;2022-11-21T09:17:03;102067.56;;;11.98;26.70
59409;BME280;45213;32.654;-115.458;2022-11-21T09:19:51;102056.13;;;11.93;27.05
59409;BME280;45213;32.654;-115.458;2022-11-21T09:22:18;102065.88;;;12.01;27.36
59409;BME280;45213;32.654;-115.458;2022-11-21T09:24:48;102058.97;;;12.03;27.77
59409;BME280;45213;32.654;-115.458;2022-11-21T09:27:17;102062.22;;;11.93;26.37
59409;BME280;45213;32.654;-115.458;2022-11-21T09:29:44;102060.28;;;11.86;26.35
59409;BME280;45213;32.654;-115.458;2022-11-21T09:32:11;102061.25;;;11.89;26.70
59409;BME280;45213;32.654;-115.458;2022-11-21T09:34:38;102059.56;;;11.91;26.89
59409;BME280;45213;32.654;-115.458;2022-11-21T09:37:04;102058.81;;;11.96;26.80
59409;BME280;45213;32.654;-115.458;2022-11-21T09:39:31;102059.72;;;11.98;26.10
59409;BME280;45213;32.654;-115.458;2022-11-21T09:42:25;102052.72;;;11.95;25.46
59409;BME280;45213;32.654;-115.458;2022-11-21T09:45:09;102047.41;;;11.92;25.08
59409;BME280;45213;32.654;-115.458;2022-11-21T09:47:49;102047.66;;;12.03;24.77
59409;BME280;45213;32.654;-115.458;2022-11-21T09:50:23;102053.09;;;12.12;25.52
59409;BME280;45213;32.654;-115.458;2022-11-21T09:53:00;102053.09;;;12.12;24.53
59409;BME280;45213;32.654;-115.458;2022-11-21T09:55:43;102044.47;;;12.16;24.22
59409;BME280;45213;32.654;-115.458;2022-11-21T09:58:17;102044.53;;;12.19;24.51
59409;BME280;45213;32.654;-115.458;2022-11-21T10:01:03;102050.69;;;12.21;24.03
59409;BME280;45213;32.654;-115.458;2022-11-21T10:03:41;102048.84;;;12.16;23.90
59409;BME280;45213;32.654;-115.458;2022-11-21T10:06:16;102048.94;;;12.20;23.77
59409;BME280;45213;32.654;-115.458;2022-11-21T10:23:28;102039.47;;;12.25;25.43
59409;BME280;45213;32.654;-115.458;2022-11-21T10:31:37;102030.56;;;12.17;26.48
59409;BME280;45213;32.654;-115.458;2022-11-21T10:34:21;102026.09;;;12.11;26.81
59409;BME280;45213;32.654;-115.458;2022-11-21T10:37:01;102035.69;;;12.11;24.81
59409;BME280;45213;32.654;-115.458;2022-11-21T10:39:37;102027.69;;;12.05;25.89
59409;BME280;45213;32.654;-115.458;2022-11-21T10:42:39;102045.91;;;12.02;26.56
59409;BME280;45213;32.654;-115.458;2022-11-21T10:45:12;102037.88;;;11.94;27.77
59409;BME280;45213;32.654;-115.458;2022-11-21T10:47:48;102028.19;;;11.88;27.49
59409;BME280;45213;32.654;-115.458;2022-11-21T10:53:21;102034.09;;;11.81;26.41
59409;BME280;45213;32.654;-115.458;2022-11-21T10:56:13;102034.81;;;11.76;26.42
59409;BME280;45213;32.654;-115.458;2022-11-21T10:58:43;102041.53;;;11.66;26.78
59409;BME280;45213;32.654;-115.458;2022-11-21T11:01:21;102042.34;;;11.65;26.46
59409;BME280;45213;32.654;-115.458;2022-11-21T11:06:38;102037.78;;;11.55;29.21
59409;BME280;45213;32.654;-115.458;2022-11-21T11:09:06;102043.22;;;11.31;28.29
59409;BME280;45213;32.654;-115.458;2022-11-21T11:11:33;102041.19;;;11.17;28.02
59409;BME280;45213;32.654;-115.458;2022-11-21T11:14:05;102035.16;;;11.20;29.43
59409;BME280;45213;32.654;-115.458;2022-11-21T11:16:43;102033.31;;;11.16;28.65
59409;BME280;45213;32.654;-115.458;2022-11-21T11:21:58;102029.53;;;11.04;28.39
59409;BME280;45213;32.654;-115.458;2022-11-21T11:24:27;102022.75;;;11.11;28.99
59409;BME280;45213;32.654;-115.458;2022-11-21T11:27:01;102033.31;;;11.16;28.94
59409;BME280;45213;32.654;-115.458;2022-11-21T11:29:30;102016.44;;;11.03;29.08
59409;BME280;45213;32.654;-115.458;2022-11-21T11:32:17;102028.72;;;11.07;28.76
59409;BME280;45213;32.654;-115.458;2022-11-21T11:37:20;102038.16;;;11.03;29.77
59409;BME280;45213;32.654;-115.458;2022-11-21T11:43:09;102020.28;;;10.84;31.89
59409;BME280;45213;32.654;-115.458;2022-11-21T11:49:33;102033.97;;;10.77;31.62
59409;BME280;45213;32.654;-115.458;2022-11-21T11:52:22;102035.81;;;10.81;31.81
59409;BME280;45213;32.654;-115.458;2022-11-21T11:55:02;102034.84;;;10.77;30.92
59409;BME280;45213;32.654;-115.458;2022-11-21T11:57:32;102033.31;;;10.84;32.61
59409;BME280;45213;32.654;-115.458;2022-11-21T12:00:37;102030.53;;;10.78;30.97
59409;BME280;45213;32.654;-115.458;2022-11-21T12:03:16;102034.38;;;10.92;30.39
59409;BME280;45213;32.654;-115.458;2022-11-21T12:06:02;102036.25;;;10.96;30.39
59409;BME280;45213;32.654;-115.458;2022-11-21T12:08:53;102041.44;;;10.96;30.18
59409;BME280;45213;32.654;-115.458;2022-11-21T12:22:58;102038.94;;;10.68;31.49
59409;BME280;45213;32.654;-115.458;2022-11-21T12:25:29;102042.47;;;10.70;31.00
59409;BME280;45213;32.654;-115.458;2022-11-21T12:27:59;102039.94;;;10.73;30.56
59409;BME280;45213;32.654;-115.458;2022-11-21T12:31:00;102044.28;;;10.74;32.35
59409;BME280;45213;32.654;-115.458;2022-11-21T12:33:35;102040.69;;;10.69;31.93
59409;BME280;45213;32.654;-115.458;2022-11-21T12:36:16;102053.56;;;10.64;31.53
59409;BME280;45213;32.654;-115.458;2022-11-21T12:39:06;102056.13;;;10.62;31.80
59409;BME280;45213;32.654;-115.458;2022-11-21T12:41:58;102054.38;;;10.61;33.01
59409;BME280;45213;32.654;-115.458;2022-11-21T12:50:30;102062.66;;;10.48;33.57
59409;BME280;45213;32.654;-115.458;2022-11-21T12:57:20;102058.06;;;10.39;32.92
59409;BME280;45213;32.654;-115.458;2022-11-21T12:59:23;102061.25;;;10.31;33.63
59409;BME280;45213;32.654;-115.458;2022-11-21T13:02:18;102068.81;;;10.23;33.19
59409;BME280;45213;32.654;-115.458;2022-11-21T13:04:59;102070.53;;;10.22;33.71
59409;BME280;45213;32.654;-115.458;2022-11-21T13:07:29;102068.75;;;10.21;33.75
59409;BME280;45213;32.654;-115.458;2022-11-21T13:09:59;102066.91;;;10.17;34.71
59409;BME280;45213;32.654;-115.458;2022-11-21T13:12:44;102066.88;;;10.16;34.54
59409;BME280;45213;32.654;-115.458;2022-11-21T13:15:32;102068.63;;;10.17;34.77
59409;BME280;45213;32.654;-115.458;2022-11-21T13:20:57;102069.06;;;10.03;34.22
59409;BME280;45213;32.654;-115.458;2022-11-21T13:23:40;102068.09;;;10.00;34.27
59409;BME280;45213;32.654;-115.458;2022-11-21T13:29:13;102074.13;;;9.99;33.09
59409;BME280;45213;32.654;-115.458;2022-11-21T13:31:43;102072.44;;;10.01;32.22
59409;BME280;45213;32.654;-115.458;2022-11-21T13:34:36;102082.22;;;10.08;32.64
59409;BME280;45213;32.654;-115.458;2022-11-21T13:37:04;102078.50;;;10.00;32.91
59409;BME280;45213;32.654;-115.458;2022-11-21T13:39:33;102087.03;;;9.96;34.24
59409;BME280;45213;32.654;-115.458;2022-11-21T13:44:46;102077.38;;;9.92;34.30
59409;BME280;45213;32.654;-115.458;2022-11-21T13:47:32;102080.03;;;9.93;30.30
59409;BME280;45213;32.654;-115.458;2022-11-21T13:53:04;102092.56;;;10.32;30.62
59409;BME280;45213;32.654;-115.458;2022-11-21T13:55:55;102083.88;;;10.32;30.95
59409;BME280;45213;32.654;-115.458;2022-11-21T14:09:53;102098.31;;;10.23;32.60
59409;BME280;45213;32.654;-115.458;2022-11-21T14:12:29;102103.16;;;10.11;32.56
59409;BME280;45213;32.654;-115.458;2022-11-21T14:15:58;102108.94;;;10.02;33.82